Yersin — 3AYE — position and weather

sailwx.info

Track history (hours):
 
Tides and Currents Weather Stations Pressure Air Temp Water Temp Dewpoint Dewpoint Depression Visibility Wind Speed Wind Dir Waves Ship Positions

Yersin

Last reported at 2018-Feb-25 15:42 UTC. Time now 2018-Feb-25 19:28 UTC.
Position N 14°36' W 061°04'.

Length 76 m; draft 4.5 m.

Type: Pleasure craft. MMSI: 254721000.

Date/timePositionNaut miles runAvg speedWind from/ knotsBaromVisibWave heightAir tempDewpointWater temp
2018-Feb-25 15:42N 14°36' W 061°04'0 0.0
2018-Feb-25 10:57N 14°36' W 061°04'0 0.0
2018-Feb-25 10:18N 14°36' W 061°04'0 0.0
2018-Feb-25 10:00N 14°36' W 061°04'0 0.0
2018-Feb-25 09:27N 14°36' W 061°04'0 0.0
2018-Feb-25 08:54N 14°36' W 061°04'0 0.0
2018-Feb-25 08:30N 14°36' W 061°04'0 0.0
2018-Feb-25 07:54N 14°36' W 061°04'0 0.0
2018-Feb-25 07:27N 14°36' W 061°04'0 0.0
2018-Feb-25 07:00N 14°36' W 061°04'0 0.0
2018-Feb-25 06:30N 14°36' W 061°04'0 0.0
2018-Feb-25 06:00N 14°36' W 061°04'0 0.0
2018-Feb-25 05:24N 14°36' W 061°04'0 0.0
2018-Feb-25 05:00N 14°36' W 061°04'0 0.0
2018-Feb-25 04:30N 14°36' W 061°04'0 0.0
2018-Feb-25 04:00N 14°36' W 061°04'0 0.0
2018-Feb-25 03:30N 14°36' W 061°04'0 0.0
2018-Feb-25 03:00N 14°36' W 061°04'0 0.0
2018-Feb-25 02:27N 14°36' W 061°04'0 0.0
2018-Feb-24 10:57N 14°36' W 061°04'0 0.0
2018-Feb-24 10:30N 14°36' W 061°04'0 0.0
2018-Feb-24 10:00N 14°36' W 061°04'0 0.0
2018-Feb-24 09:30N 14°36' W 061°04'0 0.0
2018-Feb-24 09:00N 14°36' W 061°04'0 0.0
2018-Feb-24 08:30N 14°36' W 061°04'0 0.0
2018-Feb-24 07:57N 14°36' W 061°04'0 0.0
2018-Feb-24 07:30N 14°36' W 061°04'0 0.0
2018-Feb-24 06:51N 14°36' W 061°04'0 0.0
2018-Feb-24 06:30N 14°36' W 061°04'0 0.0
2018-Feb-24 06:00N 14°36' W 061°04'0 0.0
2018-Feb-24 05:27N 14°36' W 061°04'0 0.0
2018-Feb-24 05:00N 14°36' W 061°04'0 0.0
2018-Feb-24 04:27N 14°36' W 061°04'0 0.0
2018-Feb-24 03:51N 14°36' W 061°04'0 0.0
2018-Feb-24 03:30N 14°36' W 061°04'0 0.0
2018-Feb-24 03:00N 14°36' W 061°04'0 0.0
2018-Feb-24 02:30N 14°36' W 061°04'0 0.0
2018-Feb-24 01:54N 14°36' W 061°04'0 0.0
2018-Feb-24 01:18N 14°36' W 061°04'0 0.0
2018-Feb-23 13:27N 14°36' W 061°04'3 3.9
2018-Feb-23 12:38N 14°34' W 061°07'0 1.7
2018-Feb-23 12:29N 14°34' W 061°07'5 5.7
2018-Feb-23 11:33N 14°29' W 061°05'0 0.0
2018-Feb-23 11:28N 14°29' W 061°05'0 0.0
2018-Feb-23 00:22N 14°29' W 061°05'0 0.1
2018-Feb-23 00:00N 14°29' W 061°05'0 0.0
2018-Feb-22 11:14N 14°29' W 061°05'0 0.0
2018-Feb-22 10:41N 14°29' W 061°05'0 0.1
2018-Feb-22 10:23N 14°29' W 061°05'0 0.1
2018-Feb-22 09:59N 14°29' W 061°05'0 0.0
2018-Feb-22 09:26N 14°29' W 061°05'0 0.0
2018-Feb-22 08:41N 14°29' W 061°05'0 0.0
2018-Feb-22 07:38N 14°29' W 061°05'0 0.0
2018-Feb-22 02:14N 14°29' W 061°05'0 0.0
2018-Feb-22 01:55N 14°29' W 061°05'0 0.0
2018-Feb-22 00:04N 14°29' W 061°05'1 1.7
2018-Feb-21 23:24N 14°30' W 061°06'4 9.7
2018-Feb-21 23:00N 14°33' W 061°07'3 6.8
2018-Feb-21 22:30N 14°35' W 061°04'1 0.1
2018-Feb-21 11:17N 14°36' W 061°04'0 0.0
2018-Feb-21 10:53N 14°36' W 061°04'0 0.0
2018-Feb-21 10:26N 14°36' W 061°04'0 0.0
2018-Feb-21 09:59N 14°36' W 061°04'0 0.0
2018-Feb-21 09:20N 14°36' W 061°04'0 0.0
2018-Feb-21 08:53N 14°36' W 061°04'0 0.0
2018-Feb-21 08:29N 14°36' W 061°04'0 0.0
2018-Feb-21 07:47N 14°36' W 061°04'0 0.0
2018-Feb-21 07:20N 14°36' W 061°04'0 0.0
2018-Feb-21 06:56N 14°36' W 061°04'0 0.0
2018-Feb-21 06:29N 14°36' W 061°04'0 0.0
2018-Feb-21 05:59N 14°36' W 061°04'0 0.0
2018-Feb-21 05:29N 14°36' W 061°04'0 0.0
2018-Feb-21 04:59N 14°36' W 061°04'0 0.0
2018-Feb-21 04:29N 14°36' W 061°04'0 0.0
2018-Feb-21 03:20N 14°36' W 061°04'0 0.0
2018-Feb-21 02:56N 14°36' W 061°04'0 0.0
2018-Feb-21 02:23N 14°36' W 061°04'0 0.0
2018-Feb-21 01:59N 14°36' W 061°04'0 0.0
2018-Feb-20 09:53N 14°36' W 061°04'0 0.0
2018-Feb-20 09:29N 14°36' W 061°04'0 0.0
2018-Feb-20 07:53N 14°36' W 061°04'0 0.0
2018-Feb-20 06:14N 14°36' W 061°04'0 0.0
2018-Feb-20 02:02N 14°36' W 061°04'0 0.0
2018-Feb-20 01:53N 14°36' W 061°04'0 0.0
2018-Feb-20 01:23N 14°36' W 061°04'0 0.0
2018-Feb-19 11:41N 14°36' W 061°04'0 0.0
2018-Feb-19 10:35N 14°36' W 061°04'0 0.0
2018-Feb-19 10:26N 14°36' W 061°04'0 0.0
2018-Feb-19 09:56N 14°36' W 061°04'0 0.0
2018-Feb-19 09:26N 14°36' W 061°04'0 0.0
2018-Feb-19 08:53N 14°36' W 061°04'0 0.0
2018-Feb-19 08:23N 14°36' W 061°04'0 0.0
2018-Feb-19 07:50N 14°36' W 061°04'0 0.0
2018-Feb-19 07:29N 14°36' W 061°04'0 0.0
2018-Feb-19 06:20N 14°36' W 061°04'0 0.0
2018-Feb-19 05:59N 14°36' W 061°04'0 0.0
2018-Feb-19 05:29N 14°36' W 061°04'0 0.0
2018-Feb-19 04:56N 14°36' W 061°04'0 0.0
2018-Feb-19 04:29N 14°36' W 061°04'0 0.0
2018-Feb-19 03:56N 14°36' W 061°04'0 0.0
2018-Feb-19 03:29N 14°36' W 061°04'0 0.0
2018-Feb-19 02:56N 14°36' W 061°04'0 0.0
2018-Feb-19 02:26N 14°36' W 061°04'0 0.0
2018-Feb-19 01:56N 14°36' W 061°04'0 0.0
2018-Feb-19 01:20N 14°36' W 061°04'0 0.0
2018-Feb-19 00:50N 14°36' W 061°04'0 0.0
2018-Feb-19 00:26N 14°36' W 061°04'0 0.0
2018-Feb-18 23:59N 14°36' W 061°04'0 0.0
2018-Feb-18 17:26N 14°36' W 061°04'0 0.0
2018-Feb-18 15:17N 14°36' W 061°04'0 0.0
2018-Feb-18 11:26N 14°36' W 061°04'0 0.0
2018-Feb-18 10:56N 14°36' W 061°04'0 0.0
2018-Feb-18 10:29N 14°36' W 061°04'0 0.0
2018-Feb-18 09:56N 14°36' W 061°04'0 0.0
2018-Feb-18 09:29N 14°36' W 061°04'0 0.0
2018-Feb-18 08:53N 14°36' W 061°04'0 0.0
2018-Feb-18 08:17N 14°36' W 061°04'0 0.0
2018-Feb-18 07:59N 14°36' W 061°04'0 0.0
2018-Feb-18 07:29N 14°36' W 061°04'0 0.0
2018-Feb-18 06:17N 14°36' W 061°04'0 0.0
2018-Feb-18 05:56N 14°36' W 061°04'0 0.0
2018-Feb-18 05:26N 14°36' W 061°04'0 0.0
2018-Feb-18 04:35N 14°36' W 061°04'0 0.0
2018-Feb-18 04:29N 14°36' W 061°04'0 0.0
2018-Feb-18 03:59N 14°36' W 061°04'0 0.0
2018-Feb-18 03:29N 14°36' W 061°04'0 0.0
2018-Feb-18 02:59N 14°36' W 061°04'0 0.0
2018-Feb-18 02:14N 14°36' W 061°04'0 0.0
2018-Feb-17 13:42N 14°36' W 061°04'1 4.0
2018-Feb-17 13:25N 14°35' W 061°04'6 2.6
2018-Feb-17 11:03N 14°29' W 061°05'0 0.0
2018-Feb-17 10:42N 14°29' W 061°05'0 0.0
2018-Feb-17 09:36N 14°29' W 061°05'0 0.0
2018-Feb-17 09:09N 14°29' W 061°05'0 0.1
2018-Feb-17 08:51N 14°29' W 061°05'0 0.0
2018-Feb-16 18:27N 14°29' W 061°05'0 0.0
2018-Feb-16 03:45N 14°29' W 061°05'0 0.0
2018-Feb-16 01:39N 14°29' W 061°05'0 0.1
2018-Feb-16 01:21N 14°29' W 061°05'0 0.0
2018-Feb-16 00:54N 14°29' W 061°05'0 0.0
2018-Feb-15 23:01N 14°29' W 061°05'0 0.3
2018-Feb-15 22:59N 14°29' W 061°05'1 2.2
2018-Feb-15 22:28N 14°30' W 061°06'4 8.1
2018-Feb-15 22:00N 14°33' W 061°07'  
Track history (hours):
 
Tides and Currents Weather Stations Pressure Air Temp Water Temp Dewpoint Dewpoint Depression Visibility Wind Speed Wind Dir Waves Ship Positions

Yersin

Last reported at 2018-Feb-25 15:42 UTC. Time now 2018-Feb-25 19:28 UTC.
Position N 14°36' W 061°04'.

Length 76 m; draft 4.5 m.

Type: Pleasure craft. MMSI: 254721000.

Date/timePositionNaut miles runAvg speedWind from/ knotsBaromVisibWave heightAir tempDewpointWater temp
2018-Feb-25 15:42N 14°36' W 061°04'0 0.0
2018-Feb-25 10:57N 14°36' W 061°04'0 0.0
2018-Feb-25 10:18N 14°36' W 061°04'0 0.0
2018-Feb-25 10:00N 14°36' W 061°04'0 0.0
2018-Feb-25 09:27N 14°36' W 061°04'0 0.0
2018-Feb-25 08:54N 14°36' W 061°04'0 0.0
2018-Feb-25 08:30N 14°36' W 061°04'0 0.0
2018-Feb-25 07:54N 14°36' W 061°04'0 0.0
2018-Feb-25 07:27N 14°36' W 061°04'0 0.0
2018-Feb-25 07:00N 14°36' W 061°04'0 0.0
2018-Feb-25 06:30N 14°36' W 061°04'0 0.0
2018-Feb-25 06:00N 14°36' W 061°04'0 0.0
2018-Feb-25 05:24N 14°36' W 061°04'0 0.0
2018-Feb-25 05:00N 14°36' W 061°04'0 0.0
2018-Feb-25 04:30N 14°36' W 061°04'0 0.0
2018-Feb-25 04:00N 14°36' W 061°04'0 0.0
2018-Feb-25 03:30N 14°36' W 061°04'0 0.0
2018-Feb-25 03:00N 14°36' W 061°04'0 0.0
2018-Feb-25 02:27N 14°36' W 061°04'0 0.0
2018-Feb-24 10:57N 14°36' W 061°04'0 0.0
2018-Feb-24 10:30N 14°36' W 061°04'0 0.0
2018-Feb-24 10:00N 14°36' W 061°04'0 0.0
2018-Feb-24 09:30N 14°36' W 061°04'0 0.0
2018-Feb-24 09:00N 14°36' W 061°04'0 0.0
2018-Feb-24 08:30N 14°36' W 061°04'0 0.0
2018-Feb-24 07:57N 14°36' W 061°04'0 0.0
2018-Feb-24 07:30N 14°36' W 061°04'0 0.0
2018-Feb-24 06:51N 14°36' W 061°04'0 0.0
2018-Feb-24 06:30N 14°36' W 061°04'0 0.0
2018-Feb-24 06:00N 14°36' W 061°04'0 0.0
2018-Feb-24 05:27N 14°36' W 061°04'0 0.0
2018-Feb-24 05:00N 14°36' W 061°04'0 0.0
2018-Feb-24 04:27N 14°36' W 061°04'0 0.0
2018-Feb-24 03:51N 14°36' W 061°04'0 0.0
2018-Feb-24 03:30N 14°36' W 061°04'0 0.0
2018-Feb-24 03:00N 14°36' W 061°04'0 0.0
2018-Feb-24 02:30N 14°36' W 061°04'0 0.0
2018-Feb-24 01:54N 14°36' W 061°04'0 0.0
2018-Feb-24 01:18N 14°36' W 061°04'0 0.0
2018-Feb-23 13:27N 14°36' W 061°04'3 3.9
2018-Feb-23 12:38N 14°34' W 061°07'0 1.7
2018-Feb-23 12:29N 14°34' W 061°07'5 5.7
2018-Feb-23 11:33N 14°29' W 061°05'0 0.0
2018-Feb-23 11:28N 14°29' W 061°05'0 0.0
2018-Feb-23 00:22N 14°29' W 061°05'0 0.1
2018-Feb-23 00:00N 14°29' W 061°05'0 0.0
2018-Feb-22 11:14N 14°29' W 061°05'0 0.0
2018-Feb-22 10:41N 14°29' W 061°05'0 0.1
2018-Feb-22 10:23N 14°29' W 061°05'0 0.1
2018-Feb-22 09:59N 14°29' W 061°05'0 0.0
2018-Feb-22 09:26N 14°29' W 061°05'0 0.0
2018-Feb-22 08:41N 14°29' W 061°05'0 0.0
2018-Feb-22 07:38N 14°29' W 061°05'0 0.0
2018-Feb-22 02:14N 14°29' W 061°05'0 0.0
2018-Feb-22 01:55N 14°29' W 061°05'0 0.0
2018-Feb-22 00:04N 14°29' W 061°05'1 1.7
2018-Feb-21 23:24N 14°30' W 061°06'4 9.7
2018-Feb-21 23:00N 14°33' W 061°07'3 6.8
2018-Feb-21 22:30N 14°35' W 061°04'1 0.1
2018-Feb-21 11:17N 14°36' W 061°04'0 0.0
2018-Feb-21 10:53N 14°36' W 061°04'0 0.0
2018-Feb-21 10:26N 14°36' W 061°04'0 0.0
2018-Feb-21 09:59N 14°36' W 061°04'0 0.0
2018-Feb-21 09:20N 14°36' W 061°04'0 0.0
2018-Feb-21 08:53N 14°36' W 061°04'0 0.0
2018-Feb-21 08:29N 14°36' W 061°04'0 0.0
2018-Feb-21 07:47N 14°36' W 061°04'0 0.0
2018-Feb-21 07:20N 14°36' W 061°04'0 0.0
2018-Feb-21 06:56N 14°36' W 061°04'0 0.0
2018-Feb-21 06:29N 14°36' W 061°04'0 0.0
2018-Feb-21 05:59N 14°36' W 061°04'0 0.0
2018-Feb-21 05:29N 14°36' W 061°04'0 0.0
2018-Feb-21 04:59N 14°36' W 061°04'0 0.0
2018-Feb-21 04:29N 14°36' W 061°04'0 0.0
2018-Feb-21 03:20N 14°36' W 061°04'0 0.0
2018-Feb-21 02:56N 14°36' W 061°04'0 0.0
2018-Feb-21 02:23N 14°36' W 061°04'0 0.0
2018-Feb-21 01:59N 14°36' W 061°04'0 0.0
2018-Feb-20 09:53N 14°36' W 061°04'0 0.0
2018-Feb-20 09:29N 14°36' W 061°04'0 0.0
2018-Feb-20 07:53N 14°36' W 061°04'0 0.0
2018-Feb-20 06:14N 14°36' W 061°04'0 0.0
2018-Feb-20 02:02N 14°36' W 061°04'0 0.0
2018-Feb-20 01:53N 14°36' W 061°04'0 0.0
2018-Feb-20 01:23N 14°36' W 061°04'0 0.0
2018-Feb-19 11:41N 14°36' W 061°04'0 0.0
2018-Feb-19 10:35N 14°36' W 061°04'0 0.0
2018-Feb-19 10:26N 14°36' W 061°04'0 0.0
2018-Feb-19 09:56N 14°36' W 061°04'0 0.0
2018-Feb-19 09:26N 14°36' W 061°04'0 0.0
2018-Feb-19 08:53N 14°36' W 061°04'0 0.0
2018-Feb-19 08:23N 14°36' W 061°04'0 0.0
2018-Feb-19 07:50N 14°36' W 061°04'0 0.0
2018-Feb-19 07:29N 14°36' W 061°04'0 0.0
2018-Feb-19 06:20N 14°36' W 061°04'0 0.0
2018-Feb-19 05:59N 14°36' W 061°04'0 0.0
2018-Feb-19 05:29N 14°36' W 061°04'0 0.0
2018-Feb-19 04:56N 14°36' W 061°04'0 0.0
2018-Feb-19 04:29N 14°36' W 061°04'0 0.0
2018-Feb-19 03:56N 14°36' W 061°04'0 0.0
2018-Feb-19 03:29N 14°36' W 061°04'0 0.0
2018-Feb-19 02:56N 14°36' W 061°04'0 0.0
2018-Feb-19 02:26N 14°36' W 061°04'0 0.0
2018-Feb-19 01:56N 14°36' W 061°04'0 0.0
2018-Feb-19 01:20N 14°36' W 061°04'0 0.0
2018-Feb-19 00:50N 14°36' W 061°04'0 0.0
2018-Feb-19 00:26N 14°36' W 061°04'0 0.0
2018-Feb-18 23:59N 14°36' W 061°04'0 0.0
2018-Feb-18 17:26N 14°36' W 061°04'0 0.0
2018-Feb-18 15:17N 14°36' W 061°04'0 0.0
2018-Feb-18 11:26N 14°36' W 061°04'0 0.0
2018-Feb-18 10:56N 14°36' W 061°04'0 0.0
2018-Feb-18 10:29N 14°36' W 061°04'0 0.0
2018-Feb-18 09:56N 14°36' W 061°04'0 0.0
2018-Feb-18 09:29N 14°36' W 061°04'0 0.0
2018-Feb-18 08:53N 14°36' W 061°04'0 0.0
2018-Feb-18 08:17N 14°36' W 061°04'0 0.0
2018-Feb-18 07:59N 14°36' W 061°04'0 0.0
2018-Feb-18 07:29N 14°36' W 061°04'0 0.0
2018-Feb-18 06:17N 14°36' W 061°04'0 0.0
2018-Feb-18 05:56N 14°36' W 061°04'0 0.0
2018-Feb-18 05:26N 14°36' W 061°04'0 0.0
2018-Feb-18 04:35N 14°36' W 061°04'0 0.0
2018-Feb-18 04:29N 14°36' W 061°04'0 0.0
2018-Feb-18 03:59N 14°36' W 061°04'0 0.0
2018-Feb-18 03:29N 14°36' W 061°04'0 0.0
2018-Feb-18 02:59N 14°36' W 061°04'0 0.0
2018-Feb-18 02:14N 14°36' W 061°04'0 0.0
2018-Feb-17 13:42N 14°36' W 061°04'1 4.0
2018-Feb-17 13:25N 14°35' W 061°04'6 2.6
2018-Feb-17 11:03N 14°29' W 061°05'0 0.0
2018-Feb-17 10:42N 14°29' W 061°05'0 0.0
2018-Feb-17 09:36N 14°29' W 061°05'0 0.0
2018-Feb-17 09:09N 14°29' W 061°05'0 0.1
2018-Feb-17 08:51N 14°29' W 061°05'0 0.0
2018-Feb-16 18:27N 14°29' W 061°05'0 0.0
2018-Feb-16 03:45N 14°29' W 061°05'0 0.0
2018-Feb-16 01:39N 14°29' W 061°05'0 0.1
2018-Feb-16 01:21N 14°29' W 061°05'0 0.0
2018-Feb-16 00:54N 14°29' W 061°05'0 0.0
2018-Feb-15 23:01N 14°29' W 061°05'0 0.3
2018-Feb-15 22:59N 14°29' W 061°05'1 2.2
2018-Feb-15 22:28N 14°30' W 061°06'4 8.1
2018-Feb-15 22:00N 14°33' W 061°07'  

Dump ship's entire track history